This is the latest recevied weather packets stored in our database for station/object KD8ZLZ-13. If no packets are shown the sender has not sent any weather packets the latest 10 day(s).
| Time | Temp. | Humidity | Pressure | Rain* | Wind** | Luminosity | Snow |
|---|---|---|---|---|---|---|---|
| 1777613867 | 5.56° C | 83% | 1015.3 hPa | 0 mm | - | 0 W/m² | - |
| 1777613267 | 5.56° C | 75% | 1015.6 hPa | 0.25 mm | - | 0 W/m² | - |
| 1777612667 | 5.56° C | 74% | 1015.6 hPa | 0 mm | - | 0 W/m² | - |
| 1777612223 | 6.11° C | 73% | 1015.6 hPa | 0 mm | - | 0 W/m² | - |
| 1777612067 | 6.11° C | 73% | 1015.6 hPa | 0 mm | - | 0 W/m² | - |
| 1777611467 | 6.11° C | 70% | 1015.6 hPa | 0.25 mm | - | 0 W/m² | - |
| 1777610867 | 6.11° C | 69% | 1015.6 hPa | 0.25 mm | - | 0 W/m² | - |
| 1777610267 | 6.67° C | 66% | 1015.6 hPa | 0 mm | - | 0 W/m² | - |
| 1777609667 | 6.11° C | 68% | 1015.6 hPa | 0.25 mm | - | 0 W/m² | - |
| 1777609067 | 6.67° C | 64% | 1015.6 hPa | 0 mm | - | 0 W/m² | - |
| 1777608467 | 6.67° C | 64% | 1015.6 hPa | 0 mm | - | 0 W/m² | - |
| 1777607867 | 7.22° C | 62% | 1015.9 hPa | 0 mm | - | 0 W/m² | - |
| 1777607267 | 7.78° C | 58% | 1015.9 hPa | 0 mm | - | 0 W/m² | - |
| 1777606667 | 8.33° C | 56% | 1015.9 hPa | 0 mm | - | 0 W/m² | - |
| 1777606067 | 8.33° C | 53% | 1015.9 hPa | 0 mm | - | 0 W/m² | - |
| 1777605467 | 8.89° C | 50% | 1015.9 hPa | 0 mm | - | 0 W/m² | - |
| 1777604867 | 8.89° C | 50% | 1015.9 hPa | 0 mm | - | 0 W/m² | - |
| 1777604267 | 9.44° C | 48% | 1015.9 hPa | 0 mm | - | 0 W/m² | - |
| 1777603667 | 9.44° C | 47% | 1015.6 hPa | 0 mm | - | 0 W/m² | - |
| 1777603067 | 9.44° C | 47% | 1015.6 hPa | 0 mm | - | 0 W/m² | - |
| 1777602467 | 9.44° C | 46% | 1015.6 hPa | 0 mm | - | 0 W/m² | - |
| 1777601867 | 9.44° C | 45% | 1015.3 hPa | 0 mm | - | 0 W/m² | - |
| 1777600667 | 9.44° C | 47% | 1015.3 hPa | 0 mm | - | 0 W/m² | - |
| 1777586267 | 13.33° C | 38% | 1014.9 hPa | 0 mm | - | 405 W/m² | - |
| 1777563466 | 10° C | 54% | 1015.9 hPa | 0 mm | - | 631 W/m² | - |
* Rain latest hour (hover to see other rain measurements)
** Current wind speed in m/s (hover to see current wind gust speed)